PWSweather.com
Personal Weather Stations
Station Observations
KV9EWX
Winnebago, Il, Winnebago, IL 61088

Winnebago, IlWinnebago, IL 61088

Lat: 42.261175, Lon: -89.236369

Elevation: 892

Station Type: Lacrosse ws-2811

Latest ConditionsUpdated 4:58:32 PM CDT Saturday, Sep 20, 2014
Currently Today's Max Today's Min Today's Average
Temperature 71.2°F21.8°C 76.4°F24.7°C 58.3°F14.6°C 65.1°F18.4°C
Dew Point 63.4°F17.4°C 65.9°F18.8°C 52.9°F11.6°C 59.0°F15.0°C
Winds 3.0 mph SSW4.8 kmh SSW 10.1 mph S16.3 kmh S - 4.8 mph 7.7 kmh
Wind Gusts 7.0 mph11.3 kmh 20.3 mph32.7 kmh - -
Humidity 76% 90% 66% 81%
Pressure 29.38 in994.9 mb 29.54 in1000.3 mb 29.38 in994.9 mb -
Precipitation - 0.11 in2.8 mm - -
Hour Temp Dew Point Humidity Winds Wind Gusts Pressure Precip Precip Rate Daily Precip Total
04:58 PM 71.2°F21.8°C 63.4°F17.4°C 76% 3.0 mph SSW4.8 kmh SSW 7.0 mph11.3 kmh 29.38 in994.9 mb 0.00 in0.0 mm 0.00 in/hr0.0 mm/hr 0.11 in2.8 mm
04:53 PM 71.2°F21.8°C 63.4°F17.4°C 76% 3.1 mph WSW5.0 kmh WSW 7.0 mph11.3 kmh 29.38 in994.9 mb 0.00 in0.0 mm 0.00 in/hr0.0 mm/hr 0.11 in2.8 mm
04:48 PM 71.2°F21.8°C 63.4°F17.4°C 76% 2.8 mph SE4.5 kmh SE 8.9 mph14.3 kmh 29.38 in994.9 mb 0.00 in0.0 mm 0.00 in/hr0.0 mm/hr 0.11 in2.8 mm
04:43 PM 71.1°F21.7°C 62.9°F17.2°C 75% 4.4 mph SSW7.1 kmh SSW 10.2 mph16.4 kmh 29.38 in994.9 mb 0.00 in0.0 mm 0.00 in/hr0.0 mm/hr 0.11 in2.8 mm
04:38 PM 71.2°F21.8°C 63.0°F17.2°C 75% 5.5 mph WSW8.9 kmh WSW 10.2 mph16.4 kmh 29.38 in994.9 mb 0.00 in0.0 mm 0.00 in/hr0.0 mm/hr 0.11 in2.8 mm
04:33 PM 71.2°F21.8°C 63.4°F17.4°C 76% 4.0 mph WSW6.4 kmh WSW 9.8 mph15.8 kmh 29.38 in994.9 mb 0.00 in0.0 mm 0.00 in/hr0.0 mm/hr 0.11 in2.8 mm
04:28 PM 71.1°F21.7°C 63.3°F17.4°C 76% 3.1 mph SW5.0 kmh SW 9.8 mph15.8 kmh 29.38 in994.9 mb 0.00 in0.0 mm 0.00 in/hr0.0 mm/hr 0.11 in2.8 mm
04:23 PM 71.4°F21.9°C 63.6°F17.6°C 76% 4.2 mph SW6.8 kmh SW 12.1 mph19.5 kmh 29.38 in994.9 mb 0.00 in0.0 mm 0.00 in/hr0.0 mm/hr 0.11 in2.8 mm
04:18 PM 71.6°F22.0°C 63.8°F17.7°C 76% 7.0 mph SW11.3 kmh SW 12.1 mph19.5 kmh 29.38 in994.9 mb 0.00 in0.0 mm 0.00 in/hr0.0 mm/hr 0.11 in2.8 mm
04:13 PM 72.0°F22.2°C 64.5°F18.1°C 77% 4.3 mph S6.9 kmh S 11.7 mph18.8 kmh 29.38 in994.9 mb 0.00 in0.0 mm 0.00 in/hr0.0 mm/hr 0.11 in2.8 mm
04:08 PM 72.0°F22.2°C 64.1°F17.8°C 76% 6.5 mph SW10.5 kmh SW 12.1 mph19.5 kmh 29.38 in994.9 mb 0.00 in0.0 mm 0.00 in/hr0.0 mm/hr 0.11 in2.8 mm
04:03 PM 72.1°F22.3°C 64.6°F18.1°C 77% 4.4 mph SSW7.1 kmh SSW 12.1 mph19.5 kmh 29.38 in994.9 mb 0.00 in0.0 mm 0.00 in/hr0.0 mm/hr 0.11 in2.8 mm
03:58 PM 72.3°F22.4°C 65.1°F18.4°C 78% 4.4 mph SW7.1 kmh SW 12.9 mph20.8 kmh 29.38 in994.9 mb 0.00 in0.0 mm 0.00 in/hr0.0 mm/hr 0.11 in2.8 mm
03:53 PM 72.1°F22.3°C 65.3°F18.5°C 79% 3.7 mph S6.0 kmh S 12.9 mph20.8 kmh 29.38 in994.9 mb 0.00 in0.0 mm 0.00 in/hr0.0 mm/hr 0.11 in2.8 mm
03:48 PM 72.0°F22.2°C 65.9°F18.8°C 81% 4.7 mph S7.6 kmh S 14.2 mph22.9 kmh 29.38 in994.9 mb 0.00 in0.0 mm 0.00 in/hr0.0 mm/hr 0.11 in2.8 mm
03:43 PM 71.2°F21.8°C 65.8°F18.8°C 83% 5.5 mph SSW8.9 kmh SSW 14.2 mph22.9 kmh 29.38 in994.9 mb 0.00 in0.0 mm 0.00 in/hr0.0 mm/hr 0.11 in2.8 mm
03:37 PM 70.5°F21.4°C 65.5°F18.6°C 84% 3.5 mph SW5.6 kmh SW 11.7 mph18.8 kmh 29.39 in995.3 mb 0.00 in0.0 mm 0.00 in/hr0.0 mm/hr 0.11 in2.8 mm
03:32 PM 69.5°F20.8°C 65.4°F18.6°C 87% 5.1 mph SW8.2 kmh SW 12.9 mph20.8 kmh 29.39 in995.3 mb 0.00 in0.0 mm 0.00 in/hr0.0 mm/hr 0.11 in2.8 mm
03:27 PM 68.3°F20.2°C 64.6°F18.1°C 88% 4.7 mph S7.6 kmh S 12.9 mph20.8 kmh 29.40 in995.6 mb 0.01 in0.3 mm 0.00 in/hr0.0 mm/hr 0.11 in2.8 mm
03:22 PM 67.4°F19.7°C 63.7°F17.6°C 88% 4.5 mph SSW7.2 kmh SSW 12.1 mph19.5 kmh 29.41 in995.9 mb 0.02 in0.5 mm 0.00 in/hr0.0 mm/hr 0.11 in2.8 mm
03:17 PM 67.4°F19.7°C 63.7°F17.6°C 88% 7.3 mph SSW11.7 kmh SSW 12.1 mph19.5 kmh 29.42 in996.3 mb 0.03 in0.8 mm 0.00 in/hr0.0 mm/hr 0.11 in2.8 mm
03:12 PM 67.4°F19.7°C 63.7°F17.6°C 88% 4.4 mph SSW7.1 kmh SSW 17.7 mph28.5 kmh 29.42 in996.3 mb 0.03 in0.8 mm 0.00 in/hr0.0 mm/hr 0.11 in2.8 mm
03:07 PM 67.4°F19.7°C 63.7°F17.6°C 88% 8.4 mph S13.5 kmh S 17.7 mph28.5 kmh 29.43 in996.6 mb 0.04 in1.0 mm 0.00 in/hr0.0 mm/hr 0.11 in2.8 mm
03:02 PM 67.4°F19.7°C 63.4°F17.4°C 87% 4.6 mph SSW7.4 kmh SSW 11.0 mph17.7 kmh 29.43 in996.6 mb 0.07 in1.8 mm 0.00 in/hr0.0 mm/hr 0.11 in2.8 mm
02:57 PM 67.4°F19.7°C 63.4°F17.4°C 87% 5.8 mph SSW9.3 kmh SSW 12.9 mph20.8 kmh 29.43 in996.6 mb 0.07 in1.8 mm 0.00 in/hr0.0 mm/hr 0.11 in2.8 mm
02:52 PM 67.7°F19.8°C 63.4°F17.4°C 86% 4.3 mph SSW6.9 kmh SSW 12.9 mph20.8 kmh 29.43 in996.6 mb 0.07 in1.8 mm 0.00 in/hr0.0 mm/hr 0.11 in2.8 mm
02:47 PM 67.7°F19.8°C 63.4°F17.4°C 86% 5.8 mph SSW9.3 kmh SSW 10.2 mph16.4 kmh 29.43 in996.6 mb 0.07 in1.8 mm 0.00 in/hr0.0 mm/hr 0.11 in2.8 mm
02:42 PM 67.7°F19.8°C 63.1°F17.3°C 85% 4.5 mph S7.2 kmh S 8.2 mph13.2 kmh 29.42 in996.3 mb 0.07 in1.8 mm 0.00 in/hr0.0 mm/hr 0.11 in2.8 mm
02:37 PM 67.9°F19.9°C 62.9°F17.2°C 84% 2.6 mph SW4.2 kmh SW 6.7 mph10.8 kmh 29.43 in996.6 mb 0.07 in1.8 mm 0.00 in/hr0.0 mm/hr 0.11 in2.8 mm
02:32 PM 68.1°F20.1°C 62.8°F17.1°C 83% 4.8 mph S7.7 kmh S 7.9 mph12.7 kmh 29.43 in996.6 mb 0.07 in1.8 mm 0.24 in/hr6.1 mm/hr 0.11 in2.8 mm
02:27 PM 68.6°F20.3°C 62.9°F17.2°C 82% 2.7 mph S4.3 kmh S 7.9 mph12.7 kmh 29.43 in996.6 mb 0.05 in1.3 mm 0.12 in/hr3.0 mm/hr 0.10 in2.5 mm
02:22 PM 69.2°F20.7°C 62.8°F17.1°C 80% 2.5 mph S4.0 kmh S 9.4 mph15.1 kmh 29.42 in996.3 mb 0.04 in1.0 mm 0.12 in/hr3.0 mm/hr 0.09 in2.3 mm
02:17 PM 69.8°F21.0°C 63.1°F17.3°C 79% 2.9 mph S4.7 kmh S 9.4 mph15.1 kmh 29.44 in997.0 mb 0.03 in0.8 mm 0.00 in/hr0.0 mm/hr 0.08 in2.0 mm
02:12 PM 70.9°F21.6°C 63.1°F17.3°C 76% 1.5 mph WNW2.4 kmh WNW 8.2 mph13.2 kmh 29.45 in997.3 mb 0.03 in0.8 mm 0.12 in/hr3.0 mm/hr 0.08 in2.0 mm
02:07 PM 72.5°F22.5°C 64.2°F17.9°C 75% 2.1 mph WSW3.4 kmh WSW 7.0 mph11.3 kmh 29.46 in997.6 mb 0.02 in0.5 mm 0.24 in/hr6.1 mm/hr 0.07 in1.8 mm
02:02 PM 72.9°F22.7°C 63.6°F17.6°C 72% 2.6 mph WSW4.2 kmh WSW 8.9 mph14.3 kmh 29.46 in997.6 mb 0.00 in0.0 mm 0.00 in/hr0.0 mm/hr 0.04 in1.0 mm
01:57 PM 73.3°F22.9°C 63.5°F17.5°C 71% 3.6 mph SW5.8 kmh SW 8.9 mph14.3 kmh 29.44 in997.0 mb 0.00 in0.0 mm 0.00 in/hr0.0 mm/hr 0.04 in1.0 mm
01:52 PM 73.7°F23.2°C 63.5°F17.5°C 70% 1.4 mph SSW2.3 kmh SSW 8.9 mph14.3 kmh 29.43 in996.6 mb 0.00 in0.0 mm 0.00 in/hr0.0 mm/hr 0.04 in1.0 mm
01:47 PM 74.2°F23.4°C 64.0°F17.8°C 70% 2.6 mph WSW4.2 kmh WSW 6.0 mph9.7 kmh 29.43 in996.6 mb 0.00 in0.0 mm 0.00 in/hr0.0 mm/hr 0.04 in1.0 mm
01:42 PM 74.7°F23.7°C 64.0°F17.8°C 69% 1.7 mph WSW2.7 kmh WSW 11.0 mph17.7 kmh 29.43 in996.6 mb 0.00 in0.0 mm 0.00 in/hr0.0 mm/hr 0.04 in1.0 mm
01:37 PM 75.5°F24.2°C 64.4°F18.0°C 68% 6.0 mph SW9.7 kmh SW 11.0 mph17.7 kmh 29.43 in996.6 mb 0.00 in0.0 mm 0.00 in/hr0.0 mm/hr 0.04 in1.0 mm
01:32 PM 76.0°F24.4°C 64.4°F18.0°C 67% 4.2 mph SW6.8 kmh SW 10.2 mph16.4 kmh 29.43 in996.6 mb 0.00 in0.0 mm 0.00 in/hr0.0 mm/hr 0.04 in1.0 mm
01:27 PM 76.3°F24.6°C 64.8°F18.2°C 67% 4.0 mph SSW6.4 kmh SSW 9.8 mph15.8 kmh 29.43 in996.6 mb 0.00 in0.0 mm 0.00 in/hr0.0 mm/hr 0.04 in1.0 mm
01:22 PM 76.4°F24.7°C 64.5°F18.1°C 66% 5.4 mph WSW8.7 kmh WSW 9.8 mph15.8 kmh 29.43 in996.6 mb 0.00 in0.0 mm 0.00 in/hr0.0 mm/hr 0.04 in1.0 mm
01:17 PM 75.8°F24.3°C 65.1°F18.4°C 69% 3.1 mph SW5.0 kmh SW 7.5 mph12.1 kmh 29.43 in996.6 mb 0.00 in0.0 mm 0.00 in/hr0.0 mm/hr 0.04 in1.0 mm
01:12 PM 75.1°F23.9°C 63.6°F17.6°C 67% 3.6 mph SW5.8 kmh SW 6.3 mph10.1 kmh 29.43 in996.6 mb 0.00 in0.0 mm 0.00 in/hr0.0 mm/hr 0.04 in1.0 mm
01:07 PM 75.5°F24.2°C 64.0°F17.8°C 67% 2.8 mph SW4.5 kmh SW 11.0 mph17.7 kmh 29.43 in996.6 mb 0.00 in0.0 mm 0.00 in/hr0.0 mm/hr 0.04 in1.0 mm
01:02 PM 76.0°F24.4°C 64.4°F18.0°C 67% 3.3 mph SW5.3 kmh SW 11.0 mph17.7 kmh 29.44 in997.0 mb 0.00 in0.0 mm 0.00 in/hr0.0 mm/hr 0.04 in1.0 mm
12:57 PM 75.8°F24.3°C 65.5°F18.6°C 70% 1.9 mph W3.1 kmh W 5.4 mph8.7 kmh 29.44 in997.0 mb 0.00 in0.0 mm 0.00 in/hr0.0 mm/hr 0.04 in1.0 mm
12:52 PM 75.1°F23.9°C 65.2°F18.4°C 71% 1.7 mph SW2.7 kmh SW 8.2 mph13.2 kmh 29.45 in997.3 mb 0.00 in0.0 mm 0.00 in/hr0.0 mm/hr 0.04 in1.0 mm
12:47 PM 74.6°F23.7°C 64.4°F18.0°C 70% 3.9 mph SW6.3 kmh SW 8.2 mph13.2 kmh 29.45 in997.3 mb 0.00 in0.0 mm 0.00 in/hr0.0 mm/hr 0.04 in1.0 mm
12:42 PM 74.4°F23.6°C 64.2°F17.9°C 70% 4.1 mph SSW6.6 kmh SSW 7.5 mph12.1 kmh 29.46 in997.6 mb 0.00 in0.0 mm 0.00 in/hr0.0 mm/hr 0.04 in1.0 mm
12:37 PM 74.6°F23.7°C 64.4°F18.0°C 70% 3.2 mph WSW5.1 kmh WSW 7.0 mph11.3 kmh 29.46 in997.6 mb 0.00 in0.0 mm 0.00 in/hr0.0 mm/hr 0.04 in1.0 mm
12:32 PM 74.4°F23.6°C 65.0°F18.3°C 72% 1.7 mph SW2.7 kmh SW 7.0 mph11.3 kmh 29.46 in997.6 mb 0.00 in0.0 mm 0.00 in/hr0.0 mm/hr 0.04 in1.0 mm
12:27 PM 74.0°F23.3°C 64.6°F18.1°C 72% 1.4 mph W2.3 kmh W 8.6 mph13.8 kmh 29.46 in997.6 mb 0.00 in0.0 mm 0.00 in/hr0.0 mm/hr 0.04 in1.0 mm
12:22 PM 73.8°F23.2°C 64.8°F18.2°C 73% 2.6 mph W4.2 kmh W 18.0 mph29.0 kmh 29.46 in997.6 mb 0.00 in0.0 mm 0.00 in/hr0.0 mm/hr 0.04 in1.0 mm
12:17 PM 73.5°F23.1°C 64.5°F18.1°C 73% 2.8 mph WSW4.5 kmh WSW 18.0 mph29.0 kmh 29.46 in997.6 mb 0.00 in0.0 mm 0.00 in/hr0.0 mm/hr 0.04 in1.0 mm
12:12 PM 73.3°F22.9°C 64.7°F18.2°C 74% 5.5 mph SW8.9 kmh SW 11.4 mph18.3 kmh 29.47 in998.0 mb 0.00 in0.0 mm 0.00 in/hr0.0 mm/hr 0.04 in1.0 mm
12:07 PM 72.9°F22.7°C 64.7°F18.2°C 75% 3.8 mph S6.1 kmh S 16.1 mph25.9 kmh 29.46 in997.6 mb 0.00 in0.0 mm 0.00 in/hr0.0 mm/hr 0.04 in1.0 mm
12:02 PM 72.5°F22.5°C 65.0°F18.3°C 77% 1.8 mph SW2.9 kmh SW 16.1 mph25.9 kmh 29.47 in998.0 mb 0.00 in0.0 mm 0.00 in/hr0.0 mm/hr 0.04 in1.0 mm
11:57 AM 72.0°F22.2°C 64.5°F18.1°C 77% 3.8 mph WSW6.1 kmh WSW 9.4 mph15.1 kmh 29.47 in998.0 mb 0.00 in0.0 mm 0.00 in/hr0.0 mm/hr 0.04 in1.0 mm
11:52 AM 71.8°F22.1°C 64.3°F17.9°C 77% 2.6 mph SSW4.2 kmh SSW 11.7 mph18.8 kmh 29.47 in998.0 mb 0.00 in0.0 mm 0.00 in/hr0.0 mm/hr 0.04 in1.0 mm
11:47 AM 71.6°F22.0°C 64.1°F17.8°C 77% 6.4 mph SW10.3 kmh SW 16.1 mph25.9 kmh 29.46 in997.6 mb 0.00 in0.0 mm 0.00 in/hr0.0 mm/hr 0.04 in1.0 mm
11:42 AM 71.8°F22.1°C 63.9°F17.7°C 76% 5.6 mph WSW9.0 kmh WSW 16.1 mph25.9 kmh 29.46 in997.6 mb 0.00 in0.0 mm 0.00 in/hr0.0 mm/hr 0.04 in1.0 mm
11:37 AM 72.1°F22.3°C 64.2°F17.9°C 76% 9.6 mph S15.4 kmh S 17.1 mph27.5 kmh 29.46 in997.6 mb 0.00 in0.0 mm 0.00 in/hr0.0 mm/hr 0.04 in1.0 mm
11:32 AM 71.8°F22.1°C 64.3°F17.9°C 77% 7.7 mph S12.4 kmh S 17.1 mph27.5 kmh 29.46 in997.6 mb 0.00 in0.0 mm 0.00 in/hr0.0 mm/hr 0.04 in1.0 mm
11:27 AM 71.6°F22.0°C 64.5°F18.1°C 78% 8.7 mph SSW14.0 kmh SSW 14.9 mph24.0 kmh 29.46 in997.6 mb 0.00 in0.0 mm 0.00 in/hr0.0 mm/hr 0.04 in1.0 mm
11:22 AM 71.2°F21.8°C 63.7°F17.6°C 77% 7.0 mph SSW11.3 kmh SSW 14.9 mph24.0 kmh 29.46 in997.6 mb 0.00 in0.0 mm 0.00 in/hr0.0 mm/hr 0.04 in1.0 mm
11:17 AM 71.2°F21.8°C 63.7°F17.6°C 77% 6.0 mph S9.7 kmh S 14.2 mph22.9 kmh 29.46 in997.6 mb 0.00 in0.0 mm 0.00 in/hr0.0 mm/hr 0.04 in1.0 mm
11:12 AM 71.4°F21.9°C 64.3°F17.9°C 78% 5.1 mph SW8.2 kmh SW 14.2 mph22.9 kmh 29.46 in997.6 mb 0.00 in0.0 mm 0.00 in/hr0.0 mm/hr 0.04 in1.0 mm
11:07 AM 70.9°F21.6°C 64.2°F17.9°C 79% 6.2 mph S10.0 kmh S 17.7 mph28.5 kmh 29.45 in997.3 mb 0.00 in0.0 mm 0.00 in/hr0.0 mm/hr 0.04 in1.0 mm
11:02 AM 70.7°F21.5°C 63.6°F17.6°C 78% 6.7 mph SSW10.8 kmh SSW 17.7 mph28.5 kmh 29.45 in997.3 mb 0.00 in0.0 mm 0.00 in/hr0.0 mm/hr 0.04 in1.0 mm
10:57 AM 70.5°F21.4°C 64.1°F17.8°C 80% 5.3 mph SSW8.5 kmh SSW 13.3 mph21.4 kmh 29.45 in997.3 mb 0.00 in0.0 mm 0.00 in/hr0.0 mm/hr 0.04 in1.0 mm
10:52 AM 70.2°F21.2°C 63.2°F17.3°C 78% 2.0 mph SW3.2 kmh SW 17.1 mph27.5 kmh 29.45 in997.3 mb 0.00 in0.0 mm 0.00 in/hr0.0 mm/hr 0.04 in1.0 mm
10:47 AM 70.2°F21.2°C 62.8°F17.1°C 77% 7.2 mph SW11.6 kmh SW 17.1 mph27.5 kmh 29.45 in997.3 mb 0.00 in0.0 mm 0.00 in/hr0.0 mm/hr 0.04 in1.0 mm
10:42 AM 70.3°F21.3°C 64.3°F17.9°C 81% 2.2 mph SSW3.5 kmh SSW 9.8 mph15.8 kmh 29.45 in997.3 mb 0.00 in0.0 mm 0.00 in/hr0.0 mm/hr 0.04 in1.0 mm
10:37 AM 69.5°F20.8°C 63.1°F17.3°C 80% 1.9 mph SSW3.1 kmh SSW 9.8 mph15.8 kmh 29.45 in997.3 mb 0.00 in0.0 mm 0.00 in/hr0.0 mm/hr 0.04 in1.0 mm
10:32 AM 68.8°F20.4°C 62.4°F16.9°C 80% 3.5 mph SW5.6 kmh SW 7.0 mph11.3 kmh 29.45 in997.3 mb 0.00 in0.0 mm 0.00 in/hr0.0 mm/hr 0.04 in1.0 mm
10:27 AM 68.5°F20.3°C 62.8°F17.1°C 82% 1.2 mph SW1.9 kmh SW 8.2 mph13.2 kmh 29.45 in997.3 mb 0.00 in0.0 mm 0.00 in/hr0.0 mm/hr 0.04 in1.0 mm
10:22 AM 68.1°F20.1°C 62.4°F16.9°C 82% 4.9 mph S7.9 kmh S 10.2 mph16.4 kmh 29.45 in997.3 mb 0.00 in0.0 mm 0.00 in/hr0.0 mm/hr 0.04 in1.0 mm
10:17 AM 67.7°F19.8°C 62.4°F16.9°C 83% 2.1 mph SW3.4 kmh SW 10.2 mph16.4 kmh 29.45 in997.3 mb 0.00 in0.0 mm 0.00 in/hr0.0 mm/hr 0.04 in1.0 mm
10:12 AM 67.0°F19.4°C 62.1°F16.7°C 84% 4.3 mph SSW6.9 kmh SSW 10.2 mph16.4 kmh 29.45 in997.3 mb 0.00 in0.0 mm 0.00 in/hr0.0 mm/hr 0.04 in1.0 mm
10:07 AM 66.0°F18.9°C 61.3°F16.3°C 85% 2.4 mph WSW3.9 kmh WSW 7.9 mph12.7 kmh 29.46 in997.6 mb 0.00 in0.0 mm 0.00 in/hr0.0 mm/hr 0.04 in1.0 mm
10:02 AM 65.3°F18.5°C 60.7°F15.9°C 85% 3.5 mph S5.6 kmh S 11.7 mph18.8 kmh 29.46 in997.6 mb 0.00 in0.0 mm 0.00 in/hr0.0 mm/hr 0.04 in1.0 mm
09:57 AM 65.1°F18.4°C 60.5°F15.8°C 85% 5.2 mph S8.4 kmh S 11.7 mph18.8 kmh 29.46 in997.6 mb 0.00 in0.0 mm 0.00 in/hr0.0 mm/hr 0.04 in1.0 mm
09:52 AM 65.1°F18.4°C 60.2°F15.7°C 84% 4.5 mph S7.2 kmh S 10.2 mph16.4 kmh 29.46 in997.6 mb 0.00 in0.0 mm 0.00 in/hr0.0 mm/hr 0.04 in1.0 mm
09:47 AM 65.1°F18.4°C 60.2°F15.7°C 84% 4.0 mph SSW6.4 kmh SSW 10.2 mph16.4 kmh 29.46 in997.6 mb 0.00 in0.0 mm 0.00 in/hr0.0 mm/hr 0.04 in1.0 mm
09:42 AM 65.3°F18.5°C 60.3°F15.7°C 84% 5.2 mph SW8.4 kmh SW 8.2 mph13.2 kmh 29.46 in997.6 mb 0.00 in0.0 mm 0.00 in/hr0.0 mm/hr 0.04 in1.0 mm
09:37 AM 65.5°F18.6°C 60.5°F15.8°C 84% 2.0 mph SW3.2 kmh SW 12.9 mph20.8 kmh 29.46 in997.6 mb 0.00 in0.0 mm 0.00 in/hr0.0 mm/hr 0.04 in1.0 mm
09:32 AM 65.5°F18.6°C 60.5°F15.8°C 84% 5.9 mph S9.5 kmh S 13.7 mph22.0 kmh 29.46 in997.6 mb 0.00 in0.0 mm 0.00 in/hr0.0 mm/hr 0.04 in1.0 mm
09:27 AM 65.5°F18.6°C 60.5°F15.8°C 84% 5.8 mph SSW9.3 kmh SSW 13.7 mph22.0 kmh 29.45 in997.3 mb 0.00 in0.0 mm 0.00 in/hr0.0 mm/hr 0.04 in1.0 mm
09:22 AM 65.5°F18.6°C 60.9°F16.1°C 85% 6.2 mph S10.0 kmh S 12.6 mph20.3 kmh 29.45 in997.3 mb 0.00 in0.0 mm 0.00 in/hr0.0 mm/hr 0.04 in1.0 mm
09:17 AM 64.6°F18.1°C 60.3°F15.7°C 86% 5.3 mph SSW8.5 kmh SSW 12.6 mph20.3 kmh 29.45 in997.3 mb 0.00 in0.0 mm 0.00 in/hr0.0 mm/hr 0.04 in1.0 mm
09:12 AM 64.2°F17.9°C 59.6°F15.3°C 85% 5.2 mph SSW8.4 kmh SSW 12.1 mph19.5 kmh 29.44 in997.0 mb 0.00 in0.0 mm 0.00 in/hr0.0 mm/hr 0.04 in1.0 mm
09:07 AM 64.1°F17.8°C 59.8°F15.4°C 86% 4.9 mph S7.9 kmh S 12.6 mph20.3 kmh 29.45 in997.3 mb 0.00 in0.0 mm 0.00 in/hr0.0 mm/hr 0.04 in1.0 mm
09:02 AM 64.1°F17.8°C 59.5°F15.3°C 85% 6.3 mph SSW10.1 kmh SSW 12.6 mph20.3 kmh 29.44 in997.0 mb 0.00 in0.0 mm 0.00 in/hr0.0 mm/hr 0.04 in1.0 mm
08:57 AM 64.2°F17.9°C 59.9°F15.5°C 86% 2.7 mph SW4.3 kmh SW 19.9 mph32.0 kmh 29.45 in997.3 mb 0.00 in0.0 mm 0.00 in/hr0.0 mm/hr 0.04 in1.0 mm
08:52 AM 64.2°F17.9°C 59.9°F15.5°C 86% 7.1 mph SSW11.4 kmh SSW 19.9 mph32.0 kmh 29.44 in997.0 mb 0.00 in0.0 mm 0.00 in/hr0.0 mm/hr 0.04 in1.0 mm
08:47 AM 64.1°F17.8°C 59.8°F15.4°C 86% 7.3 mph SSW11.7 kmh SSW 16.8 mph27.0 kmh 29.44 in997.0 mb 0.00 in0.0 mm 0.00 in/hr0.0 mm/hr 0.04 in1.0 mm
08:42 AM 63.7°F17.6°C 59.8°F15.4°C 87% 7.4 mph S11.9 kmh S 16.8 mph27.0 kmh 29.43 in996.6 mb 0.00 in0.0 mm 0.00 in/hr0.0 mm/hr 0.04 in1.0 mm
08:37 AM 63.0°F17.2°C 59.1°F15.1°C 87% 8.4 mph S13.5 kmh S 20.3 mph32.7 kmh 29.43 in996.6 mb 0.00 in0.0 mm 0.00 in/hr0.0 mm/hr 0.04 in1.0 mm
08:32 AM 61.8°F16.6°C 58.5°F14.7°C 89% 9.2 mph S14.8 kmh S 20.3 mph32.7 kmh 29.42 in996.3 mb 0.00 in0.0 mm 0.00 in/hr0.0 mm/hr 0.04 in1.0 mm
08:27 AM 60.9°F16.1°C 57.9°F14.4°C 90% 7.6 mph S12.2 kmh S 13.3 mph21.4 kmh 29.42 in996.3 mb 0.00 in0.0 mm 0.00 in/hr0.0 mm/hr 0.04 in1.0 mm
08:22 AM 60.4°F15.8°C 57.5°F14.2°C 90% 8.7 mph S14.0 kmh S 16.1 mph25.9 kmh 29.42 in996.3 mb 0.00 in0.0 mm 0.00 in/hr0.0 mm/hr 0.04 in1.0 mm
08:17 AM 60.2°F15.7°C 57.3°F14.1°C 90% 7.9 mph S12.7 kmh S 16.1 mph25.9 kmh 29.42 in996.3 mb 0.00 in0.0 mm 0.00 in/hr0.0 mm/hr 0.04 in1.0 mm
08:12 AM 60.0°F15.6°C 57.1°F13.9°C 90% 7.8 mph S12.6 kmh S 15.6 mph25.1 kmh 29.43 in996.6 mb 0.00 in0.0 mm 0.00 in/hr0.0 mm/hr 0.04 in1.0 mm
08:07 AM 59.8°F15.4°C 56.9°F13.8°C 90% 8.4 mph SSW13.5 kmh SSW 15.6 mph25.1 kmh 29.43 in996.6 mb 0.00 in0.0 mm 0.00 in/hr0.0 mm/hr 0.04 in1.0 mm
08:02 AM 59.6°F15.3°C 56.6°F13.7°C 90% 7.4 mph S11.9 kmh S 16.8 mph27.0 kmh 29.44 in997.0 mb 0.00 in0.0 mm 0.00 in/hr0.0 mm/hr 0.04 in1.0 mm
07:57 AM 59.4°F15.2°C 56.4°F13.6°C 90% 7.7 mph S12.4 kmh S 16.8 mph27.0 kmh 29.45 in997.3 mb 0.00 in0.0 mm 0.00 in/hr0.0 mm/hr 0.04 in1.0 mm
07:52 AM 59.2°F15.1°C 56.2°F13.4°C 90% 8.5 mph S13.7 kmh S 15.6 mph25.1 kmh 29.45 in997.3 mb 0.00 in0.0 mm 0.00 in/hr0.0 mm/hr 0.04 in1.0 mm
07:47 AM 58.9°F14.9°C 55.9°F13.3°C 90% 7.2 mph S11.6 kmh S 15.6 mph25.1 kmh 29.44 in997.0 mb 0.00 in0.0 mm 0.00 in/hr0.0 mm/hr 0.04 in1.0 mm
07:42 AM 58.7°F14.8°C 55.7°F13.2°C 90% 6.2 mph SSE10.0 kmh SSE 12.1 mph19.5 kmh 29.45 in997.3 mb 0.00 in0.0 mm 0.00 in/hr0.0 mm/hr 0.04 in1.0 mm
07:37 AM 58.7°F14.8°C 55.7°F13.2°C 90% 6.2 mph S10.0 kmh S 11.7 mph18.8 kmh 29.45 in997.3 mb 0.00 in0.0 mm 0.00 in/hr0.0 mm/hr 0.04 in1.0 mm
07:32 AM 58.5°F14.7°C 55.5°F13.1°C 90% 6.4 mph S10.3 kmh S 11.0 mph17.7 kmh 29.45 in997.3 mb 0.00 in0.0 mm 0.00 in/hr0.0 mm/hr 0.04 in1.0 mm
07:27 AM 58.5°F14.7°C 55.5°F13.1°C 90% 5.9 mph S9.5 kmh S 11.7 mph18.8 kmh 29.46 in997.6 mb 0.00 in0.0 mm 0.00 in/hr0.0 mm/hr 0.04 in1.0 mm
07:22 AM 58.5°F14.7°C 55.5°F13.1°C 90% 5.0 mph S8.0 kmh S 12.9 mph20.8 kmh 29.46 in997.6 mb 0.00 in0.0 mm 0.00 in/hr0.0 mm/hr 0.04 in1.0 mm
07:17 AM 58.3°F14.6°C 55.3°F12.9°C 90% 5.2 mph S8.4 kmh S 15.6 mph25.1 kmh 29.45 in997.3 mb 0.00 in0.0 mm 0.00 in/hr0.0 mm/hr 0.04 in1.0 mm
07:12 AM 58.3°F14.6°C 55.3°F12.9°C 90% 7.2 mph S11.6 kmh S 15.6 mph25.1 kmh 29.46 in997.6 mb 0.00 in0.0 mm 0.00 in/hr0.0 mm/hr 0.04 in1.0 mm
07:07 AM 58.5°F14.7°C 55.2°F12.9°C 89% 6.7 mph S10.8 kmh S 15.2 mph24.5 kmh 29.47 in998.0 mb 0.00 in0.0 mm 0.00 in/hr0.0 mm/hr 0.04 in1.0 mm
07:02 AM 58.3°F14.6°C 55.0°F12.8°C 89% 5.9 mph S9.5 kmh S 11.4 mph18.3 kmh 29.48 in998.3 mb 0.00 in0.0 mm 0.00 in/hr0.0 mm/hr 0.04 in1.0 mm
06:57 AM 58.3°F14.6°C 55.0°F12.8°C 89% 7.3 mph S11.7 kmh S 11.4 mph18.3 kmh 29.47 in998.0 mb 0.00 in0.0 mm 0.00 in/hr0.0 mm/hr 0.04 in1.0 mm
06:52 AM 58.3°F14.6°C 55.0°F12.8°C 89% 6.0 mph S9.7 kmh S 11.4 mph18.3 kmh 29.47 in998.0 mb 0.00 in0.0 mm 0.00 in/hr0.0 mm/hr 0.04 in1.0 mm
06:47 AM 58.3°F14.6°C 55.0°F12.8°C 89% 4.8 mph S7.7 kmh S 12.1 mph19.5 kmh 29.47 in998.0 mb 0.00 in0.0 mm 0.00 in/hr0.0 mm/hr 0.04 in1.0 mm
06:42 AM 58.3°F14.6°C 55.0°F12.8°C 89% 5.7 mph S9.2 kmh S 12.1 mph19.5 kmh 29.48 in998.3 mb 0.00 in0.0 mm 0.00 in/hr0.0 mm/hr 0.04 in1.0 mm
06:37 AM 58.3°F14.6°C 55.0°F12.8°C 89% 4.6 mph S7.4 kmh S 9.4 mph15.1 kmh 29.48 in998.3 mb 0.00 in0.0 mm 0.00 in/hr0.0 mm/hr 0.04 in1.0 mm
06:32 AM 58.5°F14.7°C 55.2°F12.9°C 89% 4.5 mph SSW7.2 kmh SSW 8.9 mph14.3 kmh 29.48 in998.3 mb 0.00 in0.0 mm 0.00 in/hr0.0 mm/hr 0.04 in1.0 mm
06:27 AM 58.5°F14.7°C 55.2°F12.9°C 89% 5.5 mph S8.9 kmh S 11.4 mph18.3 kmh 29.48 in998.3 mb 0.00 in0.0 mm 0.00 in/hr0.0 mm/hr 0.04 in1.0 mm
06:22 AM 58.5°F14.7°C 55.2°F12.9°C 89% 3.8 mph S6.1 kmh S 11.4 mph18.3 kmh 29.49 in998.6 mb 0.00 in0.0 mm 0.00 in/hr0.0 mm/hr 0.04 in1.0 mm
06:17 AM 58.5°F14.7°C 55.2°F12.9°C 89% 4.0 mph S6.4 kmh S 8.6 mph13.8 kmh 29.48 in998.3 mb 0.00 in0.0 mm 0.00 in/hr0.0 mm/hr 0.04 in1.0 mm
06:12 AM 58.7°F14.8°C 55.4°F13.0°C 89% 4.1 mph S6.6 kmh S 8.6 mph13.8 kmh 29.49 in998.6 mb 0.00 in0.0 mm 0.00 in/hr0.0 mm/hr 0.04 in1.0 mm
06:07 AM 58.7°F14.8°C 55.4°F13.0°C 89% 3.8 mph S6.1 kmh S 8.2 mph13.2 kmh 29.50 in999.0 mb 0.00 in0.0 mm 0.00 in/hr0.0 mm/hr 0.04 in1.0 mm
06:02 AM 58.5°F14.7°C 54.9°F12.7°C 88% 4.0 mph SSW6.4 kmh SSW 7.5 mph12.1 kmh 29.50 in999.0 mb 0.00 in0.0 mm 0.00 in/hr0.0 mm/hr 0.04 in1.0 mm
05:57 AM 58.5°F14.7°C 54.9°F12.7°C 88% 4.5 mph S7.2 kmh S 7.5 mph12.1 kmh 29.49 in998.6 mb 0.01 in0.3 mm 0.00 in/hr0.0 mm/hr 0.04 in1.0 mm
05:52 AM 58.5°F14.7°C 54.9°F12.7°C 88% 2.7 mph SSW4.3 kmh SSW 7.0 mph11.3 kmh 29.50 in999.0 mb 0.04 in1.0 mm 0.00 in/hr0.0 mm/hr 0.04 in1.0 mm
05:47 AM 58.7°F14.8°C 54.8°F12.7°C 87% 3.2 mph SW5.1 kmh SW 6.0 mph9.7 kmh 29.51 in999.3 mb 0.04 in1.0 mm 0.00 in/hr0.0 mm/hr 0.04 in1.0 mm
05:42 AM 58.7°F14.8°C 54.8°F12.7°C 87% 2.0 mph SSW3.2 kmh SSW 6.7 mph10.8 kmh 29.51 in999.3 mb 0.04 in1.0 mm 0.00 in/hr0.0 mm/hr 0.04 in1.0 mm
05:37 AM 58.7°F14.8°C 54.8°F12.7°C 87% 3.3 mph S5.3 kmh S 6.7 mph10.8 kmh 29.51 in999.3 mb 0.04 in1.0 mm 0.00 in/hr0.0 mm/hr 0.04 in1.0 mm
05:32 AM 58.9°F14.9°C 55.0°F12.8°C 87% 2.4 mph S3.9 kmh S 5.4 mph8.7 kmh 29.51 in999.3 mb 0.04 in1.0 mm 0.00 in/hr0.0 mm/hr 0.04 in1.0 mm
05:27 AM 58.9°F14.9°C 55.0°F12.8°C 87% 2.0 mph S3.2 kmh S 5.4 mph8.7 kmh 29.51 in999.3 mb 0.04 in1.0 mm 0.00 in/hr0.0 mm/hr 0.04 in1.0 mm
05:22 AM 59.0°F15.0°C 54.8°F12.7°C 86% 2.6 mph S4.2 kmh S 5.4 mph8.7 kmh 29.51 in999.3 mb 0.04 in1.0 mm 0.00 in/hr0.0 mm/hr 0.04 in1.0 mm
05:17 AM 59.2°F15.1°C 55.0°F12.8°C 86% 2.8 mph SSW4.5 kmh SSW 5.4 mph8.7 kmh 29.51 in999.3 mb 0.04 in1.0 mm 0.00 in/hr0.0 mm/hr 0.04 in1.0 mm
05:12 AM 59.4°F15.2°C 54.9°F12.7°C 85% 1.3 mph SSW2.1 kmh SSW 5.1 mph8.2 kmh 29.52 in999.7 mb 0.04 in1.0 mm 0.00 in/hr0.0 mm/hr 0.04 in1.0 mm
05:07 AM 59.8°F15.4°C 54.9°F12.7°C 84% 2.8 mph SSW4.5 kmh SSW 5.1 mph8.2 kmh 29.52 in999.7 mb 0.04 in1.0 mm 0.00 in/hr0.0 mm/hr 0.04 in1.0 mm
05:02 AM 60.0°F15.6°C 54.9°F12.7°C 83% 2.1 mph S3.4 kmh S 4.7 mph7.6 kmh 29.52 in999.7 mb 0.04 in1.0 mm 0.02 in/hr0.5 mm/hr 0.04 in1.0 mm
04:57 AM 60.4°F15.8°C 54.9°F12.7°C 82% 1.4 mph S2.3 kmh S 3.1 mph5.0 kmh 29.53 in1000.0 mb 0.02 in0.5 mm 0.24 in/hr6.1 mm/hr 0.02 in0.5 mm
04:52 AM 60.4°F15.8°C 54.9°F12.7°C 82% 1.0 mph N1.6 kmh N 3.1 mph5.0 kmh 29.54 in1000.3 mb 0.00 in0.0 mm 0.00 in/hr0.0 mm/hr 0.00 in0.0 mm
04:47 AM 60.4°F15.8°C 54.9°F12.7°C 82% 1.2 mph WNW1.9 kmh WNW 3.1 mph5.0 kmh 29.53 in1000.0 mb 0.00 in0.0 mm 0.00 in/hr0.0 mm/hr 0.00 in0.0 mm
04:42 AM 60.4°F15.8°C 54.9°F12.7°C 82% 0.7 mph W1.1 kmh W 1.9 mph3.1 kmh 29.53 in1000.0 mb 0.00 in0.0 mm 0.00 in/hr0.0 mm/hr 0.00 in0.0 mm
04:37 AM 60.4°F15.8°C 54.9°F12.7°C 82% 0.5 mph WNW0.8 kmh WNW 1.9 mph3.1 kmh 29.53 in1000.0 mb 0.00 in0.0 mm 0.00 in/hr0.0 mm/hr 0.00 in0.0 mm
04:32 AM 60.6°F15.9°C 55.1°F12.8°C 82% 0.9 mph WSW1.4 kmh WSW 4.4 mph7.1 kmh 29.52 in999.7 mb 0.00 in0.0 mm 0.00 in/hr0.0 mm/hr 0.00 in0.0 mm
04:27 AM 60.6°F15.9°C 55.1°F12.8°C 82% 1.1 mph WSW1.8 kmh WSW 12.9 mph20.8 kmh 29.52 in999.7 mb 0.00 in0.0 mm 0.00 in/hr0.0 mm/hr 0.00 in0.0 mm
04:22 AM 60.4°F15.8°C 54.9°F12.7°C 82% 1.8 mph W2.9 kmh W 15.6 mph25.1 kmh 29.51 in999.3 mb 0.00 in0.0 mm 0.00 in/hr0.0 mm/hr 0.00 in0.0 mm
04:17 AM 60.4°F15.8°C 54.9°F12.7°C 82% 6.3 mph SSW10.1 kmh SSW 15.6 mph25.1 kmh 29.48 in998.3 mb 0.00 in0.0 mm 0.00 in/hr0.0 mm/hr 0.00 in0.0 mm
04:11 AM 60.6°F15.9°C 54.8°F12.7°C 81% 5.1 mph SSW8.2 kmh SSW 16.1 mph25.9 kmh 29.48 in998.3 mb 0.00 in0.0 mm 0.00 in/hr0.0 mm/hr 0.00 in0.0 mm
04:06 AM 60.6°F15.9°C 54.8°F12.7°C 81% 5.6 mph SSW9.0 kmh SSW 16.1 mph25.9 kmh 29.48 in998.3 mb 0.00 in0.0 mm 0.00 in/hr0.0 mm/hr 0.00 in0.0 mm
04:02 AM 60.6°F15.9°C 54.8°F12.7°C 81% 5.0 mph SSW8.0 kmh SSW 11.0 mph17.7 kmh 29.48 in998.3 mb 0.00 in0.0 mm 0.00 in/hr0.0 mm/hr 0.00 in0.0 mm
03:57 AM 60.6°F15.9°C 54.8°F12.7°C 81% 6.0 mph S9.7 kmh S 16.1 mph25.9 kmh 29.48 in998.3 mb 0.00 in0.0 mm 0.00 in/hr0.0 mm/hr 0.00 in0.0 mm
03:52 AM 60.7°F15.9°C 54.9°F12.7°C 81% 8.0 mph S12.9 kmh S 16.1 mph25.9 kmh 29.48 in998.3 mb 0.00 in0.0 mm 0.00 in/hr0.0 mm/hr 0.00 in0.0 mm
03:46 AM 60.7°F15.9°C 54.9°F12.7°C 81% 6.4 mph S10.3 kmh S 13.3 mph21.4 kmh 29.48 in998.3 mb 0.00 in0.0 mm 0.00 in/hr0.0 mm/hr 0.00 in0.0 mm
03:41 AM 60.7°F15.9°C 54.9°F12.7°C 81% 6.7 mph S10.8 kmh S 13.3 mph21.4 kmh 29.48 in998.3 mb 0.00 in0.0 mm 0.00 in/hr0.0 mm/hr 0.00 in0.0 mm
03:37 AM 60.7°F15.9°C 54.6°F12.6°C 80% 6.9 mph SSW11.1 kmh SSW 13.3 mph21.4 kmh 29.48 in998.3 mb 0.00 in0.0 mm 0.00 in/hr0.0 mm/hr 0.00 in0.0 mm
03:31 AM 60.7°F15.9°C 54.6°F12.6°C 80% 5.9 mph S9.5 kmh S 12.6 mph20.3 kmh 29.48 in998.3 mb 0.00 in0.0 mm 0.00 in/hr0.0 mm/hr 0.00 in0.0 mm
03:26 AM 60.7°F15.9°C 54.6°F12.6°C 80% 7.0 mph S11.3 kmh S 18.4 mph29.6 kmh 29.48 in998.3 mb 0.00 in0.0 mm 0.00 in/hr0.0 mm/hr 0.00 in0.0 mm
03:22 AM 60.7°F15.9°C 54.6°F12.6°C 80% 6.3 mph SSW10.1 kmh SSW 18.4 mph29.6 kmh 29.48 in998.3 mb 0.00 in0.0 mm 0.00 in/hr0.0 mm/hr 0.00 in0.0 mm
03:16 AM 60.7°F15.9°C 54.6°F12.6°C 80% 5.9 mph S9.5 kmh S 17.1 mph27.5 kmh 29.48 in998.3 mb 0.00 in0.0 mm 0.00 in/hr0.0 mm/hr 0.00 in0.0 mm
03:11 AM 60.7°F15.9°C 54.6°F12.6°C 80% 6.6 mph SSW10.6 kmh SSW 17.1 mph27.5 kmh 29.47 in998.0 mb 0.00 in0.0 mm 0.00 in/hr0.0 mm/hr 0.00 in0.0 mm
03:06 AM 60.7°F15.9°C 54.6°F12.6°C 80% 7.3 mph S11.7 kmh S 18.0 mph29.0 kmh 29.47 in998.0 mb 0.00 in0.0 mm 0.00 in/hr0.0 mm/hr 0.00 in0.0 mm
03:01 AM 60.7°F15.9°C 54.2°F12.3°C 79% 7.0 mph S11.3 kmh S 18.0 mph29.0 kmh 29.48 in998.3 mb 0.00 in0.0 mm 0.00 in/hr0.0 mm/hr 0.00 in0.0 mm
02:56 AM 60.7°F15.9°C 54.6°F12.6°C 80% 7.0 mph SW11.3 kmh SW 14.5 mph23.3 kmh 29.48 in998.3 mb 0.00 in0.0 mm 0.00 in/hr0.0 mm/hr 0.00 in0.0 mm
02:51 AM 60.7°F15.9°C 54.6°F12.6°C 80% 7.3 mph S11.7 kmh S 14.5 mph23.3 kmh 29.48 in998.3 mb 0.00 in0.0 mm 0.00 in/hr0.0 mm/hr 0.00 in0.0 mm
02:46 AM 60.7°F15.9°C 54.6°F12.6°C 80% 7.9 mph SSW12.7 kmh SSW 14.9 mph24.0 kmh 29.49 in998.6 mb 0.00 in0.0 mm 0.00 in/hr0.0 mm/hr 0.00 in0.0 mm
02:41 AM 60.7°F15.9°C 54.2°F12.3°C 79% 8.7 mph S14.0 kmh S 18.0 mph29.0 kmh 29.49 in998.6 mb 0.00 in0.0 mm 0.00 in/hr0.0 mm/hr 0.00 in0.0 mm
02:36 AM 60.7°F15.9°C 54.2°F12.3°C 79% 10.1 mph S16.3 kmh S 18.0 mph29.0 kmh 29.49 in998.6 mb 0.00 in0.0 mm 0.00 in/hr0.0 mm/hr 0.00 in0.0 mm
02:31 AM 60.7°F15.9°C 54.2°F12.3°C 79% 7.3 mph S11.7 kmh S 13.7 mph22.0 kmh 29.49 in998.6 mb 0.00 in0.0 mm 0.00 in/hr0.0 mm/hr 0.00 in0.0 mm
02:26 AM 60.7°F15.9°C 54.2°F12.3°C 79% 6.3 mph SSE10.1 kmh SSE 10.5 mph16.9 kmh 29.50 in999.0 mb 0.00 in0.0 mm 0.00 in/hr0.0 mm/hr 0.00 in0.0 mm
02:21 AM 60.9°F16.1°C 54.4°F12.4°C 79% 5.8 mph S9.3 kmh S 14.9 mph24.0 kmh 29.50 in999.0 mb 0.00 in0.0 mm 0.00 in/hr0.0 mm/hr 0.00 in0.0 mm
02:16 AM 60.9°F16.1°C 54.4°F12.4°C 79% 7.6 mph SSW12.2 kmh SSW 14.9 mph24.0 kmh 29.50 in999.0 mb 0.00 in0.0 mm 0.00 in/hr0.0 mm/hr 0.00 in0.0 mm
02:11 AM 60.9°F16.1°C 54.1°F12.3°C 78% 5.2 mph S8.4 kmh S 14.2 mph22.9 kmh 29.50 in999.0 mb 0.00 in0.0 mm 0.00 in/hr0.0 mm/hr 0.00 in0.0 mm
02:06 AM 61.1°F16.2°C 54.3°F12.4°C 78% 6.8 mph S10.9 kmh S 14.2 mph22.9 kmh 29.50 in999.0 mb 0.00 in0.0 mm 0.00 in/hr0.0 mm/hr 0.00 in0.0 mm
02:01 AM 61.1°F16.2°C 54.3°F12.4°C 78% 3.3 mph S5.3 kmh S 12.1 mph19.5 kmh 29.50 in999.0 mb 0.00 in0.0 mm 0.00 in/hr0.0 mm/hr 0.00 in0.0 mm
01:56 AM 61.1°F16.2°C 53.9°F12.2°C 77% 4.5 mph S7.2 kmh S 12.6 mph20.3 kmh 29.50 in999.0 mb 0.00 in0.0 mm 0.00 in/hr0.0 mm/hr 0.00 in0.0 mm
01:51 AM 61.3°F16.3°C 54.5°F12.5°C 78% 6.2 mph SSW10.0 kmh SSW 12.6 mph20.3 kmh 29.50 in999.0 mb 0.00 in0.0 mm 0.00 in/hr0.0 mm/hr 0.00 in0.0 mm
01:46 AM 61.3°F16.3°C 54.1°F12.3°C 77% 4.3 mph SSW6.9 kmh SSW 12.9 mph20.8 kmh 29.50 in999.0 mb 0.00 in0.0 mm 0.00 in/hr0.0 mm/hr 0.00 in0.0 mm
01:41 AM 61.3°F16.3°C 54.1°F12.3°C 77% 5.5 mph SSW8.9 kmh SSW 12.9 mph20.8 kmh 29.51 in999.3 mb 0.00 in0.0 mm 0.00 in/hr0.0 mm/hr 0.00 in0.0 mm
01:36 AM 61.1°F16.2°C 53.9°F12.2°C 77% 6.3 mph SSW10.1 kmh SSW 12.1 mph19.5 kmh 29.51 in999.3 mb 0.00 in0.0 mm 0.00 in/hr0.0 mm/hr 0.00 in0.0 mm
01:31 AM 61.1°F16.2°C 53.9°F12.2°C 77% 5.5 mph SSW8.9 kmh SSW 12.1 mph19.5 kmh 29.51 in999.3 mb 0.00 in0.0 mm 0.00 in/hr0.0 mm/hr 0.00 in0.0 mm
01:26 AM 61.1°F16.2°C 53.9°F12.2°C 77% 5.2 mph S8.4 kmh S 12.1 mph19.5 kmh 29.51 in999.3 mb 0.00 in0.0 mm 0.00 in/hr0.0 mm/hr 0.00 in0.0 mm
01:21 AM 61.1°F16.2°C 53.9°F12.2°C 77% 5.6 mph S9.0 kmh S 11.0 mph17.7 kmh 29.51 in999.3 mb 0.00 in0.0 mm 0.00 in/hr0.0 mm/hr 0.00 in0.0 mm
01:16 AM 61.1°F16.2°C 53.9°F12.2°C 77% 5.1 mph S8.2 kmh S 11.0 mph17.7 kmh 29.51 in999.3 mb 0.00 in0.0 mm 0.00 in/hr0.0 mm/hr 0.00 in0.0 mm
01:11 AM 60.9°F16.1°C 53.4°F11.9°C 76% 5.2 mph S8.4 kmh S 11.0 mph17.7 kmh 29.51 in999.3 mb 0.00 in0.0 mm 0.00 in/hr0.0 mm/hr 0.00 in0.0 mm
01:06 AM 60.9°F16.1°C 53.4°F11.9°C 76% 5.4 mph SSW8.7 kmh SSW 11.4 mph18.3 kmh 29.51 in999.3 mb 0.00 in0.0 mm 0.00 in/hr0.0 mm/hr 0.00 in0.0 mm
01:01 AM 60.7°F15.9°C 53.2°F11.8°C 76% 5.8 mph S9.3 kmh S 12.1 mph19.5 kmh 29.51 in999.3 mb 0.00 in0.0 mm 0.00 in/hr0.0 mm/hr 0.00 in0.0 mm
12:56 AM 60.7°F15.9°C 53.2°F11.8°C 76% 7.3 mph S11.7 kmh S 12.1 mph19.5 kmh 29.51 in999.3 mb 0.00 in0.0 mm 0.00 in/hr0.0 mm/hr 0.00 in0.0 mm
12:51 AM 60.9°F16.1°C 53.4°F11.9°C 76% 4.5 mph S7.2 kmh S 9.4 mph15.1 kmh 29.51 in999.3 mb 0.00 in0.0 mm 0.00 in/hr0.0 mm/hr 0.00 in0.0 mm
12:46 AM 60.9°F16.1°C 53.4°F11.9°C 76% 4.5 mph S7.2 kmh S 12.1 mph19.5 kmh 29.51 in999.3 mb 0.00 in0.0 mm 0.00 in/hr0.0 mm/hr 0.00 in0.0 mm
12:41 AM 60.9°F16.1°C 53.0°F11.7°C 75% 3.8 mph S6.1 kmh S 12.1 mph19.5 kmh 29.50 in999.0 mb 0.00 in0.0 mm 0.00 in/hr0.0 mm/hr 0.00 in0.0 mm
12:36 AM 61.1°F16.2°C 53.2°F11.8°C 75% 3.0 mph S4.8 kmh S 11.0 mph17.7 kmh 29.50 in999.0 mb 0.00 in0.0 mm 0.00 in/hr0.0 mm/hr 0.00 in0.0 mm
12:31 AM 61.1°F16.2°C 53.2°F11.8°C 75% 5.2 mph S8.4 kmh S 13.3 mph21.4 kmh 29.49 in998.6 mb 0.00 in0.0 mm 0.00 in/hr0.0 mm/hr 0.00 in0.0 mm
12:26 AM 61.1°F16.2°C 53.2°F11.8°C 75% 6.7 mph S10.8 kmh S 13.3 mph21.4 kmh 29.49 in998.6 mb 0.00 in0.0 mm 0.00 in/hr0.0 mm/hr 0.00 in0.0 mm
12:21 AM 61.3°F16.3°C 53.1°F11.7°C 74% 4.9 mph S7.9 kmh S 10.5 mph16.9 kmh 29.49 in998.6 mb 0.00 in0.0 mm 0.00 in/hr0.0 mm/hr 0.00 in0.0 mm
12:16 AM 61.1°F16.2°C 52.9°F11.6°C 74% 4.8 mph SSW7.7 kmh SSW 11.0 mph17.7 kmh 29.50 in999.0 mb 0.00 in0.0 mm 0.00 in/hr0.0 mm/hr 0.00 in0.0 mm
12:11 AM 61.1°F16.2°C 52.9°F11.6°C 74% 5.3 mph S8.5 kmh S 11.0 mph17.7 kmh 29.50 in999.0 mb 0.00 in0.0 mm 0.00 in/hr0.0 mm/hr 0.00 in0.0 mm
12:06 AM 61.3°F16.3°C 53.1°F11.7°C 74% 5.4 mph SSW8.7 kmh SSW 9.4 mph15.1 kmh 29.50 in999.0 mb 0.00 in0.0 mm 0.00 in/hr0.0 mm/hr 0.00 in0.0 mm
12:01 AM 61.5°F16.4°C 52.9°F11.6°C 73% 4.5 mph SSW7.2 kmh SSW 13.3 mph21.4 kmh 29.50 in999.0 mb 0.00 in0.0 mm 0.00 in/hr0.0 mm/hr 0.00 in0.0 mm